createdAt,value
2022-10-11T00:01:47.672Z,11.00
2022-10-11T00:04:14.287Z,11.00
2022-10-11T00:06:43.405Z,11.00
2022-10-11T00:09:11.645Z,11.00
2022-10-11T00:11:39.472Z,11.00
2022-10-11T00:14:06.370Z,10.90
2022-10-11T00:16:32.958Z,10.80
2022-10-11T00:18:59.621Z,10.80
2022-10-11T00:21:26.985Z,10.80
2022-10-11T00:23:53.805Z,10.80
2022-10-11T00:26:20.455Z,10.80
2022-10-11T00:28:47.130Z,10.80
2022-10-11T00:31:16.441Z,10.70
2022-10-11T00:33:43.025Z,10.70
2022-10-11T00:36:13.679Z,10.80
2022-10-11T00:38:40.372Z,10.70
2022-10-11T00:41:07.047Z,10.60
2022-10-11T00:43:34.015Z,10.50
2022-10-11T00:46:26.043Z,10.60
2022-10-11T00:49:21.806Z,10.50
2022-10-11T00:51:56.667Z,10.50
2022-10-11T00:54:27.121Z,10.50
2022-10-11T00:56:59.882Z,12.40
2022-10-11T00:59:31.556Z,10.40
2022-10-11T01:01:58.327Z,10.40
2022-10-11T01:04:24.999Z,10.50
2022-10-11T01:06:53.196Z,10.40
2022-10-11T01:09:21.077Z,10.40
2022-10-11T01:11:51.083Z,10.40
2022-10-11T01:14:33.767Z,10.50
2022-10-11T01:17:31.659Z,10.50
2022-10-11T01:20:24.176Z,10.60
2022-10-11T01:23:17.332Z,10.50
2022-10-11T01:25:59.598Z,10.50
2022-10-11T01:28:31.992Z,10.50
2022-10-11T01:31:06.603Z,10.50
2022-10-11T01:33:41.246Z,10.70
2022-10-11T01:36:27.939Z,10.70
2022-10-11T01:39:03.011Z,10.60
2022-10-11T01:41:36.872Z,10.60
2022-10-11T01:44:04.943Z,10.50
2022-10-11T01:46:33.004Z,10.50
2022-10-11T01:49:01.623Z,10.50
2022-10-11T01:51:35.799Z,10.40
2022-10-11T01:54:24.698Z,10.40
2022-10-11T01:57:07.882Z,10.40
2022-10-11T01:59:55.949Z,10.50
2022-10-11T02:02:56.013Z,10.40
2022-10-11T02:05:28.449Z,10.40
2022-10-11T02:08:07.124Z,10.40
2022-10-11T02:11:02.249Z,10.40
2022-10-11T02:13:35.657Z,10.40
2022-10-11T02:16:07.083Z,10.20
2022-10-11T02:18:39.143Z,10.00
2022-10-11T02:21:08.779Z,10.10
2022-10-11T02:23:41.828Z,10.20
2022-10-11T02:26:11.523Z,10.30
2022-10-11T02:28:41.660Z,10.30
2022-10-11T02:31:10.990Z,10.40
2022-10-11T02:33:50.053Z,10.40
2022-10-11T02:36:24.815Z,10.10
2022-10-11T02:38:58.619Z,10.10
2022-10-11T02:41:35.055Z,10.10
2022-10-11T02:44:18.726Z,10.00
2022-10-11T02:46:46.638Z,10.00
2022-10-11T02:49:14.969Z,10.00
2022-10-11T02:51:42.087Z,10.00
2022-10-11T02:54:08.711Z,9.90
2022-10-11T02:56:35.349Z,9.90
2022-10-11T02:59:01.941Z,10.50
2022-10-11T03:01:28.758Z,10.00
2022-10-11T03:03:55.435Z,10.00
2022-10-11T03:06:22.153Z,9.90
2022-10-11T03:08:48.778Z,10.00
2022-10-11T03:11:15.402Z,9.90
2022-10-11T03:13:41.976Z,9.90
2022-10-11T03:16:08.895Z,10.00
2022-10-11T03:18:35.678Z,10.00
2022-10-11T03:21:02.292Z,8.50
2022-10-11T03:23:28.915Z,9.90
2022-10-11T03:25:55.521Z,9.90
2022-10-11T03:28:22.330Z,10.00
2022-10-11T03:30:50.325Z,10.00
2022-10-11T03:33:17.219Z,9.90
2022-10-11T03:35:45.645Z,9.80
2022-10-11T03:38:14.307Z,9.90
2022-10-11T03:40:43.003Z,9.90
2022-10-11T03:43:09.978Z,9.90
2022-10-11T03:45:36.890Z,9.90
2022-10-11T03:48:04.207Z,9.90
2022-10-11T03:50:31.192Z,9.90
2022-10-11T03:52:58.328Z,9.90
2022-10-11T03:55:24.922Z,9.90
2022-10-11T03:57:51.599Z,9.90
2022-10-11T04:00:18.402Z,9.90
2022-10-11T04:02:45.012Z,9.90
2022-10-11T04:05:12.591Z,9.90
2022-10-11T04:07:39.827Z,9.90
2022-10-11T04:10:07.445Z,9.90
2022-10-11T04:12:34.712Z,9.90
2022-10-11T04:15:01.345Z,10.00
2022-10-11T04:17:27.951Z,10.00
2022-10-11T04:19:54.550Z,10.00
2022-10-11T04:22:21.179Z,10.00
2022-10-11T04:24:47.768Z,9.90
2022-10-11T04:27:14.422Z,10.00
2022-10-11T04:29:41.023Z,10.00
2022-10-11T04:32:07.644Z,9.90
2022-10-11T04:34:34.310Z,9.90
2022-10-11T04:37:00.962Z,10.90
2022-10-11T04:39:27.596Z,9.90
2022-10-11T04:41:54.240Z,9.90
2022-10-11T04:44:20.827Z,9.80
2022-10-11T04:46:47.426Z,9.70
2022-10-11T04:49:14.393Z,9.80
2022-10-11T04:51:41.014Z,10.40
2022-10-11T04:54:07.599Z,9.80
2022-10-11T04:56:34.281Z,9.80
2022-10-11T04:59:00.969Z,9.80
2022-10-11T05:01:27.645Z,9.90
2022-10-11T05:03:54.234Z,9.90
2022-10-11T05:06:20.815Z,9.80
2022-10-11T05:08:47.457Z,9.70
2022-10-11T05:11:16.322Z,9.70
2022-10-11T05:13:44.089Z,9.80
2022-10-11T05:16:11.535Z,9.80
2022-10-11T05:18:39.558Z,9.80
2022-10-11T05:21:09.420Z,9.80
2022-10-11T05:23:37.090Z,9.70
2022-10-11T05:26:04.611Z,9.70
2022-10-11T05:28:31.534Z,9.50
2022-10-11T05:30:58.574Z,9.40
2022-10-11T05:33:25.229Z,9.50
2022-10-11T05:35:51.983Z,9.40
2022-10-11T05:38:19.760Z,9.50
2022-10-11T05:40:46.385Z,9.50
2022-10-11T05:43:13.071Z,9.40
2022-10-11T05:45:41.559Z,9.60
2022-10-11T05:48:08.947Z,10.10
2022-10-11T05:50:36.479Z,10.30
2022-10-11T05:53:03.340Z,10.40
2022-10-11T05:55:29.969Z,10.60
2022-10-11T05:57:57.776Z,10.60
2022-10-11T06:00:25.004Z,10.30
2022-10-11T06:02:52.246Z,10.10
2022-10-11T06:05:18.824Z,10.10
2022-10-11T06:07:45.428Z,10.10
2022-10-11T06:10:12.166Z,10.00
2022-10-11T06:12:39.010Z,10.10
2022-10-11T06:15:06.730Z,10.20
2022-10-11T06:17:33.426Z,10.20
2022-10-11T06:20:00.009Z,10.10
2022-10-11T06:22:26.752Z,10.10
2022-10-11T06:24:53.323Z,10.20
2022-10-11T06:27:19.917Z,10.20
2022-10-11T06:29:46.540Z,10.20
2022-10-11T06:32:15.970Z,10.10
2022-10-11T06:34:42.540Z,10.10
2022-10-11T06:37:09.153Z,10.30
2022-10-11T06:39:35.780Z,10.20
2022-10-11T06:42:02.438Z,10.00
2022-10-11T06:44:29.324Z,10.00
2022-10-11T06:46:55.937Z,10.00
2022-10-11T06:49:23.663Z,10.10
2022-10-11T06:51:50.793Z,10.10
2022-10-11T06:54:17.537Z,10.20
2022-10-11T06:56:45.603Z,10.20
2022-10-11T06:59:13.350Z,10.30
2022-10-11T07:01:40.104Z,10.30
2022-10-11T07:04:07.170Z,10.30
2022-10-11T07:06:37.553Z,10.30
2022-10-11T07:09:05.283Z,10.40
2022-10-11T07:11:31.996Z,10.30
2022-10-11T07:14:07.820Z,10.40
2022-10-11T07:16:37.993Z,10.40
2022-10-11T07:19:06.101Z,10.40
2022-10-11T07:21:34.375Z,10.30
2022-10-11T07:24:01.837Z,10.40
2022-10-11T07:26:33.753Z,10.40
2022-10-11T07:29:03.649Z,10.40
2022-10-11T07:31:30.720Z,10.30
2022-10-11T07:33:57.515Z,10.40
2022-10-11T07:36:24.233Z,10.50
2022-10-11T07:38:50.968Z,10.70
2022-10-11T07:41:18.292Z,10.70
2022-10-11T07:43:46.966Z,10.80
2022-10-11T07:46:14.443Z,12.00
2022-10-11T07:48:41.790Z,10.70
2022-10-11T07:51:10.107Z,10.70
2022-10-11T07:53:45.558Z,10.70
2022-10-11T07:56:15.410Z,10.70
2022-10-11T07:58:42.465Z,10.80
2022-10-11T08:01:10.466Z,10.80
2022-10-11T08:03:38.286Z,10.90
2022-10-11T08:06:09.059Z,10.90
2022-10-11T08:08:36.863Z,11.00
2022-10-11T08:11:03.891Z,11.00
2022-10-11T08:13:30.501Z,11.20
2022-10-11T08:15:57.855Z,11.20
2022-10-11T08:18:24.562Z,11.10
2022-10-11T08:20:51.431Z,11.10
2022-10-11T08:23:18.994Z,11.20
2022-10-11T08:25:48.306Z,11.30
2022-10-11T08:28:17.357Z,11.40
2022-10-11T08:30:51.686Z,11.50
2022-10-11T08:33:19.275Z,11.50
2022-10-11T08:35:45.928Z,11.60
2022-10-11T08:38:13.265Z,11.70
2022-10-11T08:40:50.729Z,11.80
2022-10-11T08:43:43.737Z,11.80
2022-10-11T08:46:11.967Z,11.90
2022-10-11T08:48:42.659Z,12.10
2022-10-11T08:51:31.443Z,12.20
2022-10-11T08:54:12.706Z,12.20
2022-10-11T08:56:40.719Z,12.20
2022-10-11T08:59:13.161Z,12.40
2022-10-11T09:01:47.432Z,12.50
2022-10-11T09:04:15.989Z,12.40
2022-10-11T09:07:05.187Z,12.40
2022-10-11T09:10:09.634Z,12.50
2022-10-11T09:13:07.152Z,12.50
2022-10-11T09:15:49.282Z,12.60
2022-10-11T09:18:37.406Z,12.60
2022-10-11T09:21:11.482Z,12.60
2022-10-11T09:23:53.340Z,12.60
2022-10-11T09:26:29.734Z,12.70
2022-10-11T09:29:19.050Z,12.70
2022-10-11T09:31:49.297Z,12.80
2022-10-11T09:34:16.189Z,13.00
2022-10-11T09:37:14.306Z,13.10
2022-10-11T09:39:50.124Z,13.10
2022-10-11T09:42:17.150Z,13.10
2022-10-11T09:44:49.429Z,13.10
2022-10-11T09:47:25.584Z,13.20
2022-10-11T09:50:05.266Z,13.30
2022-10-11T09:52:32.408Z,13.30
2022-10-11T09:55:01.347Z,13.40
2022-10-11T09:57:30.914Z,13.50
2022-10-11T10:00:24.592Z,13.50
2022-10-11T10:02:53.859Z,13.60
2022-10-11T10:05:26.085Z,13.70
2022-10-11T10:08:11.171Z,13.70
2022-10-11T10:11:20.851Z,13.90
2022-10-11T10:13:53.063Z,13.90
2022-10-11T10:16:34.241Z,13.90
2022-10-11T10:19:18.297Z,14.00
2022-10-11T10:21:50.612Z,14.00
2022-10-11T10:24:27.755Z,14.00
2022-10-11T10:27:35.694Z,14.00
2022-10-11T10:30:08.490Z,13.90
2022-10-11T10:32:46.174Z,13.90
2022-10-11T10:35:45.527Z,13.90
2022-10-11T10:38:40.797Z,14.20
2022-10-11T10:41:13.151Z,14.30
2022-10-11T10:43:41.782Z,14.40
2022-10-11T10:46:16.439Z,14.40
2022-10-11T10:49:41.519Z,14.40
2022-10-11T10:52:21.939Z,14.50
2022-10-11T10:55:07.671Z,14.50
2022-10-11T10:57:59.298Z,14.70
2022-10-11T11:00:33.139Z,14.80
2022-10-11T11:03:06.502Z,14.60
2022-10-11T11:05:48.453Z,14.60
2022-10-11T11:08:35.894Z,14.60
2022-10-11T11:11:36.236Z,14.50
2022-10-11T11:14:33.566Z,14.50
2022-10-11T11:17:20.471Z,14.40
2022-10-11T11:20:12.893Z,14.50
2022-10-11T11:22:53.478Z,14.60
2022-10-11T11:25:26.350Z,14.60
2022-10-11T11:28:02.102Z,14.60
2022-10-11T11:30:57.329Z,14.60
2022-10-11T11:33:48.704Z,14.50
2022-10-11T11:36:34.161Z,14.50
2022-10-11T11:39:04.317Z,14.60
2022-10-11T11:41:42.780Z,14.60
2022-10-11T11:44:23.851Z,14.60
2022-10-11T11:47:02.630Z,14.60
2022-10-11T11:49:37.243Z,14.70
2022-10-11T11:52:12.702Z,14.80
2022-10-11T11:54:49.682Z,14.80
2022-10-11T11:57:51.933Z,14.80
2022-10-11T12:00:25.447Z,15.70
2022-10-11T12:02:59.468Z,14.70
2022-10-11T12:05:30.399Z,14.70
2022-10-11T12:08:02.063Z,14.70
2022-10-11T12:10:36.559Z,14.70
2022-10-11T12:13:12.363Z,14.70
2022-10-11T12:15:39.042Z,14.60
2022-10-11T12:18:14.449Z,14.70
2022-10-11T12:20:42.955Z,14.60
2022-10-11T12:23:20.083Z,14.60
2022-10-11T12:26:18.433Z,14.60
2022-10-11T12:29:01.098Z,14.60
2022-10-11T12:31:36.610Z,14.60
2022-10-11T12:34:17.016Z,14.60
2022-10-11T12:36:45.794Z,14.60
2022-10-11T12:39:21.162Z,14.70
2022-10-11T12:41:47.873Z,16.10
2022-10-11T12:44:20.821Z,14.60
2022-10-11T12:46:50.375Z,14.60
2022-10-11T12:49:41.527Z,14.70
2022-10-11T12:52:17.583Z,14.80
2022-10-11T12:55:26.133Z,14.70
2022-10-11T12:58:22.337Z,14.70
2022-10-11T13:00:52.019Z,14.70
2022-10-11T13:03:35.217Z,14.80
2022-10-11T13:06:36.172Z,14.80
2022-10-11T13:09:11.386Z,14.90
2022-10-11T13:11:50.701Z,15.10
2022-10-11T13:14:21.548Z,15.10
2022-10-11T13:16:57.444Z,15.30
2022-10-11T13:19:24.876Z,15.30
2022-10-11T13:21:55.644Z,15.20
2022-10-11T13:24:23.247Z,15.30
2022-10-11T13:26:52.211Z,15.20
2022-10-11T13:29:33.784Z,15.30
2022-10-11T13:32:05.879Z,15.30
2022-10-11T13:34:37.621Z,15.40
2022-10-11T13:37:04.921Z,15.30
2022-10-11T13:39:36.714Z,15.30
2022-10-11T13:42:06.811Z,15.30
2022-10-11T13:44:34.079Z,16.90
2022-10-11T13:47:00.781Z,15.40
2022-10-11T13:49:37.192Z,15.40
2022-10-11T13:52:18.510Z,15.50
2022-10-11T13:54:58.697Z,15.50
2022-10-11T13:57:40.973Z,15.40
2022-10-11T14:00:22.961Z,15.40
2022-10-11T14:03:17.037Z,15.60
2022-10-11T14:05:56.608Z,15.60
2022-10-11T14:08:46.553Z,15.60
2022-10-11T14:11:14.376Z,15.50
2022-10-11T14:13:43.061Z,15.30
2022-10-11T14:16:13.057Z,15.10
2022-10-11T14:18:58.694Z,15.10
2022-10-11T14:21:45.753Z,15.00
2022-10-11T14:24:13.263Z,15.00
2022-10-11T14:26:42.614Z,15.10
2022-10-11T14:29:27.736Z,15.10
2022-10-11T14:32:01.215Z,15.20
2022-10-11T14:34:28.211Z,15.00
2022-10-11T14:36:54.948Z,14.90
2022-10-11T14:39:23.808Z,14.80
2022-10-11T14:41:51.680Z,14.80
2022-10-11T14:44:19.668Z,14.70
2022-10-11T14:46:47.855Z,14.60
2022-10-11T14:49:17.407Z,14.60
2022-10-11T14:51:46.543Z,14.60
2022-10-11T14:54:14.615Z,14.60
2022-10-11T14:56:41.575Z,14.60
2022-10-11T14:59:10.315Z,14.70
2022-10-11T15:01:37.233Z,14.70
2022-10-11T15:04:03.914Z,14.70
2022-10-11T15:06:33.782Z,14.70
2022-10-11T15:09:00.392Z,14.70
2022-10-11T15:11:27.210Z,14.70
2022-10-11T15:13:53.926Z,14.70
2022-10-11T15:16:21.602Z,14.70
2022-10-11T15:18:51.009Z,15.40
2022-10-11T15:21:23.421Z,14.70
2022-10-11T15:23:51.580Z,14.90
2022-10-11T15:26:21.131Z,14.90
2022-10-11T15:28:48.870Z,14.90
2022-10-11T15:31:15.928Z,14.80
2022-10-11T15:33:42.685Z,14.80
2022-10-11T15:36:14.006Z,14.90
2022-10-11T15:38:41.134Z,14.90
2022-10-11T15:41:09.546Z,15.00
2022-10-11T15:43:36.149Z,15.00
2022-10-11T15:46:03.240Z,15.00
2022-10-11T15:48:30.256Z,15.00
2022-10-11T15:50:56.890Z,15.00
2022-10-11T15:53:28.487Z,15.00
2022-10-11T15:55:57.524Z,15.00
2022-10-11T15:58:30.076Z,15.00
2022-10-11T16:01:00.362Z,15.00
2022-10-11T16:03:30.078Z,15.00
2022-10-11T16:06:02.370Z,14.90
2022-10-11T16:08:31.475Z,14.90
2022-10-11T16:10:58.968Z,14.90
2022-10-11T16:13:25.641Z,14.90
2022-10-11T16:15:52.534Z,15.00
2022-10-11T16:18:20.891Z,14.90
2022-10-11T16:20:49.045Z,14.90
2022-10-11T16:23:15.982Z,14.90
2022-10-11T16:25:43.271Z,14.90
2022-10-11T16:28:10.529Z,14.90
2022-10-11T16:30:43.113Z,14.90
2022-10-11T16:33:09.903Z,14.90
2022-10-11T16:35:40.754Z,14.90
2022-10-11T16:38:07.397Z,14.90
2022-10-11T16:40:35.894Z,14.80
2022-10-11T16:43:07.413Z,14.80
2022-10-11T16:45:35.411Z,14.80
2022-10-11T16:48:02.650Z,14.80
2022-10-11T16:50:29.269Z,14.80
2022-10-11T16:52:56.130Z,14.80
2022-10-11T16:55:23.407Z,14.80
2022-10-11T16:57:50.050Z,14.70
2022-10-11T17:00:17.295Z,14.70
2022-10-11T17:02:43.906Z,14.70
2022-10-11T17:05:10.472Z,14.60
2022-10-11T17:07:37.106Z,14.50
2022-10-11T17:10:05.086Z,14.50
2022-10-11T17:12:32.443Z,14.50
2022-10-11T17:14:59.062Z,14.50
2022-10-11T17:17:26.954Z,14.50
2022-10-11T17:19:53.833Z,14.50
2022-10-11T17:22:20.672Z,14.40
2022-10-11T17:24:47.732Z,14.40
2022-10-11T17:27:14.409Z,14.40
2022-10-11T17:29:41.236Z,14.30
2022-10-11T17:32:08.076Z,14.30
2022-10-11T17:34:34.969Z,14.30
2022-10-11T17:37:01.665Z,14.30
2022-10-11T17:39:28.443Z,14.20
2022-10-11T17:41:55.097Z,14.20
2022-10-11T17:44:22.040Z,14.20
2022-10-11T17:46:48.950Z,14.20
2022-10-11T17:49:15.836Z,14.30
2022-10-11T17:51:42.521Z,14.30
2022-10-11T17:54:12.626Z,14.30
2022-10-11T17:56:41.075Z,14.30
2022-10-11T17:59:10.132Z,14.20
2022-10-11T18:01:38.239Z,14.20
2022-10-11T18:04:05.925Z,14.20
2022-10-11T18:06:39.214Z,14.20
2022-10-11T18:09:06.145Z,14.30
2022-10-11T18:11:32.911Z,14.30
2022-10-11T18:13:59.648Z,15.90
2022-10-11T18:16:28.405Z,14.40
2022-10-11T18:18:57.339Z,14.40
2022-10-11T18:21:28.786Z,14.40
2022-10-11T18:24:01.880Z,14.40
2022-10-11T18:26:30.648Z,14.50
2022-10-11T18:28:57.885Z,14.40
2022-10-11T18:31:27.134Z,14.40
2022-10-11T18:33:54.581Z,14.40
2022-10-11T18:36:23.569Z,14.40
2022-10-11T18:38:54.186Z,14.40
2022-10-11T18:41:22.482Z,14.30
2022-10-11T18:43:56.846Z,14.20
2022-10-11T18:46:23.915Z,14.20
2022-10-11T18:48:53.252Z,14.10
2022-10-11T18:51:21.285Z,14.00
2022-10-11T18:53:48.305Z,14.00
2022-10-11T18:56:17.025Z,13.90
2022-10-11T18:58:44.782Z,13.80
2022-10-11T19:01:26.315Z,13.90
2022-10-11T19:03:56.652Z,13.80
2022-10-11T19:06:25.934Z,13.70
2022-10-11T19:08:55.563Z,13.70
2022-10-11T19:11:25.113Z,13.60
2022-10-11T19:13:59.709Z,13.40
2022-10-11T19:16:27.557Z,13.40
2022-10-11T19:18:54.278Z,13.30
2022-10-11T19:21:21.967Z,13.20
2022-10-11T19:23:50.104Z,13.20
2022-10-11T19:26:23.300Z,13.10
2022-10-11T19:28:59.642Z,13.10
2022-10-11T19:31:27.020Z,13.10
2022-10-11T19:33:53.908Z,13.00
2022-10-11T19:36:20.522Z,13.00
2022-10-11T19:38:48.902Z,13.00
2022-10-11T19:41:18.923Z,13.00
2022-10-11T19:43:46.610Z,13.00
2022-10-11T19:46:27.278Z,12.90
2022-10-11T19:49:02.729Z,12.90
2022-10-11T19:51:34.595Z,12.80
2022-10-11T19:54:04.204Z,12.70
2022-10-11T19:56:32.755Z,12.70
2022-10-11T19:59:00.323Z,12.70
2022-10-11T20:01:29.869Z,12.70
2022-10-11T20:03:59.160Z,12.60
2022-10-11T20:06:27.816Z,12.60
2022-10-11T20:09:16.628Z,12.50
2022-10-11T20:11:42.358Z,12.50
2022-10-11T20:14:09.341Z,12.40
2022-10-11T20:16:36.097Z,12.40
2022-10-11T20:19:02.825Z,12.40
2022-10-11T20:21:30.550Z,12.40
2022-10-11T20:24:00.197Z,12.40
2022-10-11T20:26:28.094Z,12.30
2022-10-11T20:28:56.791Z,12.30
2022-10-11T20:31:26.627Z,12.30
2022-10-11T20:34:01.135Z,12.30
2022-10-11T20:36:29.996Z,12.20
2022-10-11T20:38:57.898Z,12.20
2022-10-11T20:41:32.761Z,12.10
2022-10-11T20:44:01.796Z,13.40
2022-10-11T20:46:31.465Z,12.10
2022-10-11T20:49:04.201Z,12.10
2022-10-11T20:51:32.477Z,12.10
2022-10-11T20:53:59.342Z,12.10
2022-10-11T20:56:26.659Z,12.00
2022-10-11T20:58:55.156Z,12.00
2022-10-11T21:01:26.107Z,12.00
2022-10-11T21:03:53.241Z,12.00
2022-10-11T21:06:19.905Z,12.00
2022-10-11T21:08:46.483Z,11.90
2022-10-11T21:11:13.081Z,11.90
2022-10-11T21:13:40.033Z,11.90
2022-10-11T21:16:14.533Z,11.90
2022-10-11T21:18:41.782Z,11.80
2022-10-11T21:21:14.006Z,11.80
2022-10-11T21:23:41.253Z,11.80
2022-10-11T21:26:11.318Z,11.80
2022-10-11T21:28:38.914Z,11.80
2022-10-11T21:31:10.811Z,11.70
2022-10-11T21:33:38.290Z,11.70
2022-10-11T21:36:05.616Z,11.60
2022-10-11T21:38:32.732Z,11.70
2022-10-11T21:41:02.249Z,11.70
2022-10-11T21:43:28.889Z,11.60
2022-10-11T21:45:55.485Z,11.60
2022-10-11T21:48:22.076Z,11.60
2022-10-11T21:50:53.779Z,11.60
2022-10-11T21:53:20.606Z,11.50
2022-10-11T21:55:47.487Z,11.60
2022-10-11T21:58:14.212Z,11.50
2022-10-11T22:00:40.790Z,11.50
2022-10-11T22:03:07.590Z,11.50
2022-10-11T22:05:34.431Z,11.50
2022-10-11T22:08:01.004Z,11.50
2022-10-11T22:10:27.733Z,11.50
2022-10-11T22:12:54.381Z,11.50
2022-10-11T22:15:21.274Z,11.40
2022-10-11T22:17:47.887Z,11.40
2022-10-11T22:20:14.645Z,11.40
2022-10-11T22:22:41.329Z,11.40
2022-10-11T22:25:08.724Z,11.30
2022-10-11T22:27:35.327Z,11.30
2022-10-11T22:30:02.011Z,11.30
2022-10-11T22:32:28.713Z,11.30
2022-10-11T22:34:55.305Z,11.20
2022-10-11T22:37:21.985Z,11.20
2022-10-11T22:39:48.730Z,11.20
2022-10-11T22:42:15.310Z,11.20
2022-10-11T22:44:42.054Z,11.20
2022-10-11T22:47:08.856Z,11.10
2022-10-11T22:49:35.456Z,11.10
2022-10-11T22:52:02.078Z,11.10
2022-10-11T22:54:28.755Z,11.10
2022-10-11T22:56:55.351Z,11.10
2022-10-11T22:59:22.044Z,11.10
2022-10-11T23:01:48.724Z,11.10
2022-10-11T23:04:17.698Z,11.10
2022-10-11T23:06:44.328Z,11.10
2022-10-11T23:09:11.050Z,11.10
2022-10-11T23:11:37.793Z,11.10
2022-10-11T23:14:04.653Z,11.00
2022-10-11T23:16:31.426Z,11.00
2022-10-11T23:18:58.145Z,11.10
2022-10-11T23:21:25.943Z,11.00
2022-10-11T23:23:53.903Z,11.00
2022-10-11T23:26:21.093Z,11.00
2022-10-11T23:28:47.929Z,11.00
2022-10-11T23:31:17.455Z,10.90
2022-10-11T23:33:45.294Z,11.00
2022-10-11T23:36:20.574Z,10.90
2022-10-11T23:38:55.894Z,10.90
2022-10-11T23:41:28.577Z,10.90
2022-10-11T23:43:55.653Z,10.90
2022-10-11T23:46:22.545Z,10.90
2022-10-11T23:48:49.249Z,10.80
2022-10-11T23:51:16.218Z,10.80
2022-10-11T23:53:42.944Z,10.80
2022-10-11T23:56:10.766Z,10.80
2022-10-11T23:58:38.123Z,10.80
